Time;durP1;ratioP1;P1;durP2;ratioP2;P2;SDS_P1;SDS_P2;PMS_P1;PMS_P2;Temp;Humidity;BMP_temperature;BMP_pressure;BME280_temperature;BME280_humidity;BME280_pressure;Samples;Min_cycle;Max_cycle;Signal;HPM_P1;HPM_P2
2022/04/12 00:00:43;;;;;;;17.58;7.32;;;;;;;9.06;63.92;101061.19;5013392;28;20033;-78
2022/04/12 00:03:09;;;;;;;17.42;8.30;;;;;;;9.08;64.04;101061.97;5015379;28;20022;-75
2022/04/12 00:05:38;;;;;;;19.70;10.18;;;;;;;9.02;63.63;101063.22;5014818;28;20022;-76
2022/04/12 00:08:05;;;;;;;17.83;9.45;;;;;;;9.03;63.82;101075.66;5013333;28;20018;-76
2022/04/12 00:10:31;;;;;;;20.48;8.27;;;;;;;9.00;64.08;101057.09;5013453;28;20069;-75
2022/04/12 00:12:58;;;;;;;33.47;9.48;;;;;;;9.01;63.78;101063.34;5013525;28;20062;-78
2022/04/12 00:15:24;;;;;;;39.05;9.20;;;;;;;8.98;63.72;101058.19;5013107;28;20026;-75
2022/04/12 00:20:34;;;;;;;10.10;6.82;;;;;;;8.87;64.04;101063.41;5013012;28;20595;-75
2022/04/12 00:22:59;;;;;;;11.43;6.72;;;;;;;8.80;63.91;101054.06;5013044;28;20241;-77
2022/04/12 00:25:26;;;;;;;17.50;8.60;;;;;;;8.72;63.78;101054.56;5012820;28;20029;-76
2022/04/12 00:27:54;;;;;;;17.40;8.75;;;;;;;8.67;63.77;101059.38;5012652;28;20018;-77
2022/04/12 00:30:20;;;;;;;17.60;8.02;;;;;;;8.64;64.77;101048.84;5012741;28;20025;-78
2022/04/12 00:32:46;;;;;;;13.23;7.82;;;;;;;8.51;64.78;101048.81;5012787;28;20057;-77
2022/04/12 00:35:12;;;;;;;15.82;8.00;;;;;;;8.57;65.13;101040.34;5012657;28;20030;-76
2022/04/12 00:37:38;;;;;;;18.80;8.07;;;;;;;8.58;65.49;101036.72;5012611;28;20033;-75
2022/04/12 00:40:04;;;;;;;24.17;7.72;;;;;;;8.66;65.48;101050.47;5012818;28;20492;-77
2022/04/12 00:42:31;;;;;;;20.27;8.18;;;;;;;8.65;65.03;101053.25;5014820;28;20131;-74
2022/04/12 00:44:57;;;;;;;19.67;7.45;;;;;;;8.67;65.41;101049.50;5029281;28;20136;-75
2022/04/12 00:47:23;;;;;;;13.63;8.23;;;;;;;8.64;65.74;101052.41;5031214;28;20037;-76
2022/04/12 00:49:49;;;;;;;15.32;7.22;;;;;;;8.69;65.59;101057.44;5029253;28;20455;-76
2022/04/12 00:52:15;;;;;;;11.38;7.53;;;;;;;8.66;65.76;101053.16;5016067;28;20026;-75
2022/04/12 00:54:41;;;;;;;15.55;8.80;;;;;;;8.52;65.91;101055.91;5012758;28;20403;-76
2022/04/12 00:57:07;;;;;;;11.85;7.53;;;;;;;8.60;66.23;101056.25;5012596;28;20473;-77
2022/04/12 00:59:34;;;;;;;16.83;8.50;;;;;;;8.68;66.31;101059.25;5012955;28;20030;-75
2022/04/12 01:02:03;;;;;;;13.05;8.20;;;;;;;8.77;65.75;101065.84;5012285;28;20037;-75
2022/04/12 01:04:29;;;;;;;27.45;13.98;;;;;;;8.84;66.03;101056.41;5011838;28;20041;-75
2022/04/12 01:06:54;;;;;;;24.50;18.90;;;;;;;8.90;65.39;101057.84;5011953;28;20044;-75
2022/04/12 01:09:21;;;;;;;29.27;19.00;;;;;;;8.96;65.50;101054.75;5011910;28;20487;-75
2022/04/12 01:11:48;;;;;;;16.25;11.30;;;;;;;9.00;65.30;101058.91;5011984;28;20368;-75
2022/04/12 01:14:15;;;;;;;12.77;9.07;;;;;;;8.94;65.46;101051.28;5011835;28;20073;-75
2022/04/12 01:16:41;;;;;;;20.63;11.88;;;;;;;8.93;65.50;101049.59;5011805;28;20538;-75
2022/04/12 01:19:08;;;;;;;14.90;9.90;;;;;;;8.95;65.42;101048.53;5011666;28;20079;-76
2022/04/12 01:22:04;;;;;;;17.52;10.27;;;;;;;8.98;65.56;101052.81;5011430;28;20060;-76
2022/04/12 01:24:32;;;;;;;11.90;8.95;;;;;;;9.00;65.17;101050.88;5012589;28;20583;-76
2022/04/12 01:26:58;;;;;;;13.40;8.95;;;;;;;8.96;65.66;101057.44;5019193;28;20049;-74
2022/04/12 01:29:24;;;;;;;11.55;7.20;;;;;;;8.97;65.47;101041.22;5011351;28;20028;-74
2022/04/12 01:31:49;;;;;;;14.80;8.45;;;;;;;8.90;65.33;101029.19;5010842;28;20197;-74
2022/04/12 01:34:15;;;;;;;18.33;7.88;;;;;;;9.07;64.95;101057.56;5010918;28;20022;-74
2022/04/12 01:36:40;;;;;;;22.60;8.40;;;;;;;9.08;64.86;101059.28;5010848;28;20044;-74
2022/04/12 01:39:06;;;;;;;10.88;7.03;;;;;;;9.09;64.72;101066.34;5010978;28;20080;-75
2022/04/12 01:41:31;;;;;;;13.32;7.80;;;;;;;8.95;64.36;101047.66;5011044;28;20412;-75
2022/04/12 01:43:57;;;;;;;12.82;8.45;;;;;;;8.98;64.75;101066.22;5011243;28;20033;-75
2022/04/12 01:46:23;;;;;;;13.77;7.63;;;;;;;8.94;64.64;101049.47;5011036;28;20400;-74
2022/04/12 01:48:49;;;;;;;11.55;6.53;;;;;;;8.94;64.78;101062.88;5009686;28;20025;-75
2022/04/12 01:51:16;;;;;;;13.75;7.50;;;;;;;8.96;64.80;101058.25;5011322;28;20042;-76
2022/04/12 01:53:42;;;;;;;15.85;6.68;;;;;;;8.96;64.46;101052.06;5009682;28;20419;-76
2022/04/12 01:56:07;;;;;;;14.45;7.90;;;;;;;8.92;64.81;101063.97;5012238;28;20080;-74
2022/04/12 01:58:34;;;;;;;17.55;7.90;;;;;;;8.77;65.20;101065.00;5014939;28;20018;-75
2022/04/12 02:01:00;;;;;;;15.93;8.55;;;;;;;8.81;65.41;101055.78;5015044;28;20388;-75
2022/04/12 02:03:26;;;;;;;20.40;9.27;;;;;;;8.65;65.50;101046.06;5014975;28;20087;-74
2022/04/12 02:05:52;;;;;;;14.60;8.07;;;;;;;8.71;65.25;101066.25;5015048;28;20084;-75
2022/04/12 02:08:18;;;;;;;17.88;8.40;;;;;;;8.85;65.54;101073.38;5014140;28;20021;-75
2022/04/12 02:10:43;;;;;;;17.75;9.40;;;;;;;8.84;65.81;101060.94;5015078;28;20431;-74
2022/04/12 02:13:09;;;;;;;20.98;9.63;;;;;;;8.74;65.10;101060.69;5013413;28;20060;-76
2022/04/12 02:15:34;;;;;;;14.20;9.18;;;;;;;8.69;64.84;101074.41;5014729;28;20443;-75
2022/04/12 02:18:00;;;;;;;17.70;8.77;;;;;;;8.56;65.29;101064.59;5014749;28;20032;-75
2022/04/12 02:20:26;;;;;;;18.08;8.32;;;;;;;8.45;65.81;101054.56;5013420;28;20029;-75
2022/04/12 02:22:51;;;;;;;17.08;9.02;;;;;;;8.59;66.27;101069.75;5014722;28;20543;-75
2022/04/12 02:25:16;;;;;;;15.43;9.65;;;;;;;8.57;65.96;101066.31;5014542;28;20076;-76
2022/04/12 02:27:42;;;;;;;18.80;8.75;;;;;;;8.56;65.69;101069.97;5014501;28;20083;-76
2022/04/12 02:30:08;;;;;;;28.42;11.82;;;;;;;8.46;65.36;101061.66;5014923;28;20403;-76
2022/04/12 02:32:34;;;;;;;20.52;11.18;;;;;;;8.62;65.48;101067.72;5014434;28;20021;-76
2022/04/12 02:35:00;;;;;;;20.63;11.10;;;;;;;8.54;65.36;101047.75;5014269;28;20037;-76
2022/04/12 02:37:28;;;;;;;24.67;12.57;;;;;;;8.54;65.42;101056.66;5014501;28;20067;-76
2022/04/12 02:39:54;;;;;;;15.48;9.55;;;;;;;8.61;65.32;101071.38;5014248;28;20037;-75
2022/04/12 02:42:19;;;;;;;18.23;11.13;;;;;;;8.37;65.48;101051.53;5014221;28;20057;-76
2022/04/12 02:44:45;;;;;;;29.13;13.95;;;;;;;8.55;65.43;101078.97;5014193;28;20037;-76
2022/04/12 02:47:11;;;;;;;23.88;12.90;;;;;;;8.56;65.87;101073.47;5014025;28;20151;-74
2022/04/12 02:49:36;;;;;;;25.15;12.45;;;;;;;8.55;65.69;101066.41;5014202;28;20033;-74
2022/04/12 02:52:02;;;;;;;16.83;11.43;;;;;;;8.51;65.61;101064.88;5014357;28;20112;-74
2022/04/12 02:54:27;;;;;;;18.98;11.13;;;;;;;8.42;65.21;101054.78;5014172;28;20034;-75
2022/04/12 02:56:53;;;;;;;24.52;11.27;;;;;;;8.58;65.30;101076.06;5014069;28;20022;-75
2022/04/12 02:59:18;;;;;;;19.38;9.98;;;;;;;8.61;65.63;101086.59;5012681;28;20053;-76
2022/04/12 03:01:44;;;;;;;35.30;12.38;;;;;;;8.64;65.63;101083.72;5013857;28;20049;-75
2022/04/12 03:04:09;;;;;;;16.83;9.32;;;;;;;8.50;65.75;101068.53;5012609;28;20033;-75
2022/04/12 03:06:35;;;;;;;19.33;12.13;;;;;;;8.49;65.94;101065.97;5018160;28;20026;-75
2022/04/12 03:09:00;;;;;;;25.80;10.38;;;;;;;8.60;66.26;101075.00;5017934;28;20026;-74
2022/04/12 03:11:26;;;;;;;29.25;11.90;;;;;;;8.55;65.91;101071.78;5013732;28;20022;-74
2022/04/12 03:13:52;;;;;;;19.98;12.63;;;;;;;8.60;66.42;101083.06;5013622;28;20056;-74
2022/04/12 03:16:19;;;;;;;17.30;13.00;;;;;;;8.43;66.27;101047.59;5013696;28;20026;-74
2022/04/12 03:18:44;;;;;;;18.40;12.05;;;;;;;8.56;66.14;101072.66;5013538;28;20912;-74
2022/04/12 03:21:10;;;;;;;18.33;12.75;;;;;;;8.43;66.17;101053.81;5013662;28;20025;-74
2022/04/12 03:23:36;;;;;;;22.88;13.75;;;;;;;8.60;65.98;101080.38;5013676;28;20111;-76
2022/04/12 03:26:02;;;;;;;26.20;13.25;;;;;;;8.57;66.56;101085.06;5013557;28;20022;-74
2022/04/12 03:28:27;;;;;;;29.98;15.18;;;;;;;8.44;66.01;101066.25;5013348;28;20029;-74
2022/04/12 03:30:53;;;;;;;38.47;15.20;;;;;;;8.45;66.13;101080.50;5011919;28;20126;-75
2022/04/12 03:33:18;;;;;;;25.02;15.00;;;;;;;8.44;66.14;101095.72;5013519;28;20026;-74
2022/04/12 03:35:44;;;;;;;25.52;13.13;;;;;;;8.47;66.55;101100.06;5011970;28;20034;-76
2022/04/12 03:38:10;;;;;;;41.10;15.38;;;;;;;8.42;66.41;101107.50;5013127;28;20036;-75
2022/04/12 03:40:35;;;;;;;28.65;14.43;;;;;;;8.34;66.81;101108.03;5013095;28;20026;-75
2022/04/12 03:43:04;;;;;;;27.40;15.65;;;;;;;8.30;67.00;101106.50;5011691;28;20057;-76
2022/04/12 03:45:30;;;;;;;20.70;13.95;;;;;;;8.32;67.93;101107.25;5012656;28;20026;-76
2022/04/12 03:47:56;;;;;;;31.58;15.02;;;;;;;8.31;67.55;101116.25;5012959;28;20033;-74
2022/04/12 03:50:22;;;;;;;29.52;14.52;;;;;;;8.24;67.43;101093.47;5012864;28;20030;-74
2022/04/12 03:52:48;;;;;;;30.27;15.02;;;;;;;8.32;67.23;101106.41;5013149;28;20114;-76
2022/04/12 03:55:14;;;;;;;49.35;16.52;;;;;;;8.34;67.43;101105.34;5013492;28;20030;-77
2022/04/12 03:57:39;;;;;;;156.18;23.30;;;;;;;8.41;66.99;101117.38;5013818;28;20061;-74
2022/04/12 04:00:08;;;;;;;40.78;14.40;;;;;;;8.42;67.36;101129.81;5013653;28;20026;-76
2022/04/12 04:02:34;;;;;;;26.17;13.63;;;;;;;8.46;67.45;101128.69;5013507;28;20026;-77
2022/04/12 04:05:00;;;;;;;28.98;15.30;;;;;;;8.44;67.64;101117.16;5014005;28;20037;-76
2022/04/12 04:07:27;;;;;;;37.45;14.50;;;;;;;8.46;67.52;101128.69;5012557;28;20026;-76
2022/04/12 04:09:53;;;;;;;32.83;14.68;;;;;;;8.60;67.01;101131.31;5012473;28;20104;-76
2022/04/12 04:12:19;;;;;;;33.00;13.73;;;;;;;8.57;66.97;101123.47;5011134;28;20158;-75
2022/04/12 04:14:44;;;;;;;65.63;18.25;;;;;;;8.68;67.16;101138.88;5012144;28;20124;-75
2022/04/12 04:17:10;;;;;;;31.88;15.20;;;;;;;8.66;67.07;101133.59;5013188;28;20029;-82
2022/04/12 04:19:36;;;;;;;27.58;12.75;;;;;;;8.63;66.50;101125.75;5014120;28;20026;-83
2022/04/12 04:22:02;;;;;;;40.90;23.13;;;;;;;8.71;66.70;101141.34;5012424;28;20025;-81
2022/04/12 04:24:27;;;;;;;32.85;14.10;;;;;;;8.74;66.47;101147.34;5014138;28;20021;-80
2022/04/12 04:26:55;;;;;;;30.92;13.65;;;;;;;8.72;66.85;101146.59;5015312;28;20072;-84
2022/04/12 04:29:23;;;;;;;36.03;13.98;;;;;;;8.73;66.62;101155.50;5013469;28;20038;-80
2022/04/12 04:31:49;;;;;;;27.52;13.50;;;;;;;8.75;66.53;101143.72;5013776;28;20096;-81
2022/04/12 04:34:15;;;;;;;26.50;13.25;;;;;;;8.70;67.01;101139.63;5013348;28;20030;-85
2022/04/12 04:36:40;;;;;;;36.25;16.65;;;;;;;8.73;66.66;101148.31;5013222;28;20034;-79
2022/04/12 04:39:06;;;;;;;36.58;14.90;;;;;;;8.75;66.45;101150.88;5012805;28;20541;-80
2022/04/12 04:41:31;;;;;;;22.77;12.98;;;;;;;8.77;66.58;101163.22;5013441;28;20022;-85
2022/04/12 04:43:57;;;;;;;30.02;13.18;;;;;;;8.78;66.58;101158.72;5014988;28;20044;-88
2022/04/12 04:46:23;;;;;;;33.00;13.50;;;;;;;8.75;65.89;101157.13;5021018;28;20069;-89
2022/04/12 04:48:48;;;;;;;52.92;13.68;;;;;;;8.77;66.33;101160.56;5032129;28;20022;-87
2022/04/12 04:51:14;;;;;;;49.25;13.63;;;;;;;8.68;66.59;101158.47;5018520;28;20479;-86
2022/04/12 04:53:39;;;;;;;34.13;13.93;;;;;;;8.83;65.96;101164.69;5012888;28;20034;-76
2022/04/12 04:56:05;;;;;;;43.15;14.32;;;;;;;8.90;66.27;101173.19;5011443;28;20026;-78
2022/04/12 04:58:31;;;;;;;33.15;10.77;;;;;;;8.95;65.75;101174.59;5011662;28;20097;-77
2022/04/12 05:00:56;;;;;;;27.85;10.88;;;;;;;9.01;66.25;101176.88;5012179;28;20113;-78
2022/04/12 05:03:22;;;;;;;65.38;15.18;;;;;;;9.04;65.81;101181.19;5011452;28;20400;-80
2022/04/12 05:05:47;;;;;;;34.03;11.93;;;;;;;9.06;65.54;101189.97;5011626;28;20017;-77
2022/04/12 05:08:13;;;;;;;52.30;17.83;;;;;;;9.06;65.47;101184.59;5011590;28;20038;-78
2022/04/12 05:10:38;;;;;;;77.32;14.80;;;;;;;9.06;65.31;101184.59;5011527;28;20125;-77
2022/04/12 05:13:04;;;;;;;57.90;14.13;;;;;;;9.09;65.28;101190.63;5011469;28;20054;-78
2022/04/12 05:15:29;;;;;;;76.78;13.10;;;;;;;9.17;65.30;101179.41;5012064;28;20022;-86
2022/04/12 05:17:55;;;;;;;73.18;14.10;;;;;;;9.23;65.51;101184.38;5012677;28;20026;-86
2022/04/12 05:20:24;;;;;;;17.55;10.20;;;;;;;9.23;64.98;101187.88;5012281;28;20032;-84
2022/04/12 05:22:49;;;;;;;66.22;13.20;;;;;;;9.35;65.18;101185.34;5012765;28;20029;-83
2022/04/12 05:25:15;;;;;;;37.25;11.63;;;;;;;9.37;64.81;101184.28;5010813;28;20116;-84
2022/04/12 05:27:43;;;;;;;28.17;10.98;;;;;;;9.33;64.69;101181.94;5012199;28;20105;-84
2022/04/12 05:30:10;;;;;;;92.45;15.82;;;;;;;9.46;64.56;101189.03;5011041;28;20053;-82
2022/04/12 05:32:37;;;;;;;29.15;12.43;;;;;;;9.52;65.01;101194.00;5010554;28;20510;-83
2022/04/12 05:35:05;;;;;;;39.45;11.98;;;;;;;9.45;64.32;101198.03;5012316;28;20095;-82
2022/04/12 05:37:31;;;;;;;23.42;12.52;;;;;;;9.50;64.19;101201.28;5012691;28;20034;-82
2022/04/12 05:39:57;;;;;;;31.38;12.55;;;;;;;9.57;64.15;101197.22;5012664;28;20034;-83
2022/04/12 05:42:23;;;;;;;24.77;11.30;;;;;;;9.51;63.89;101189.56;5012987;28;20188;-83
2022/04/12 05:44:49;;;;;;;19.42;10.43;;;;;;;9.57;63.75;101186.47;5013011;28;20033;-83
2022/04/12 05:47:14;;;;;;;22.92;10.80;;;;;;;9.67;63.28;101197.44;5012624;28;20029;-83
2022/04/12 05:49:40;;;;;;;23.15;10.75;;;;;;;9.57;63.47;101202.56;5012096;28;20176;-82
2022/04/12 05:52:06;;;;;;;12.93;8.88;;;;;;;9.63;63.34;101201.31;5012194;28;20041;-82
2022/04/12 05:54:31;;;;;;;24.73;11.30;;;;;;;9.62;63.42;101200.47;5012247;28;20538;-82
2022/04/12 05:56:57;;;;;;;22.38;11.18;;;;;;;9.63;63.27;101196.78;5013896;28;20126;-84
2022/04/12 05:59:23;;;;;;;22.50;10.40;;;;;;;9.73;63.73;101203.25;5016649;28;20030;-83
2022/04/12 06:01:48;;;;;;;23.02;11.10;;;;;;;9.74;63.64;101188.00;5026486;28;20052;-82
2022/04/12 06:04:14;;;;;;;18.58;9.55;;;;;;;9.91;63.54;101202.97;5012211;28;20048;-81
2022/04/12 06:06:41;;;;;;;22.15;9.48;;;;;;;10.01;63.14;101201.34;5013187;28;20514;-83
2022/04/12 06:09:07;;;;;;;19.35;8.98;;;;;;;10.01;62.28;101198.66;5014297;28;20033;-84
2022/04/12 06:11:32;;;;;;;18.75;9.98;;;;;;;9.99;62.49;101198.78;5011947;28;20033;-85
2022/04/12 06:13:58;;;;;;;28.85;10.50;;;;;;;10.04;62.56;101196.63;5011779;28;20126;-83
2022/04/12 06:16:24;;;;;;;22.27;8.15;;;;;;;10.16;62.46;101197.59;5011651;28;20076;-83
2022/04/12 06:18:49;;;;;;;15.63;8.50;;;;;;;10.26;62.03;101198.69;5012150;28;20084;-83
2022/04/12 06:21:14;;;;;;;19.63;8.50;;;;;;;10.27;62.11;101209.31;5012041;28;20092;-83
2022/04/12 06:23:40;;;;;;;15.52;9.57;;;;;;;10.31;62.30;101194.69;5012395;28;20025;-83
2022/04/12 06:26:06;;;;;;;21.33;9.27;;;;;;;10.40;61.76;101186.97;5015227;28;20056;-84
2022/04/12 06:28:32;;;;;;;16.58;8.30;;;;;;;10.46;61.30;101190.03;5030648;28;20028;-83
2022/04/12 06:30:59;;;;;;;25.52;11.50;;;;;;;10.66;61.24;101200.25;5022150;28;20033;-83
2022/04/12 06:33:26;;;;;;;24.48;10.80;;;;;;;10.70;61.36;101200.88;5012678;28;20484;-83
2022/04/12 06:35:51;;;;;;;32.78;12.18;;;;;;;10.77;60.84;101197.63;5011626;28;20036;-84
2022/04/12 06:38:18;;;;;;;25.25;14.45;;;;;;;10.78;61.22;101199.34;5011881;28;20057;-83
2022/04/12 06:40:44;;;;;;;21.20;10.88;;;;;;;10.77;61.00;101197.63;5010705;28;20112;-83
2022/04/12 06:43:11;;;;;;;26.95;10.40;;;;;;;10.87;60.52;101195.97;5014768;28;20029;-84
2022/04/12 06:45:37;;;;;;;17.17;10.07;;;;;;;10.96;60.22;101202.50;5013871;28;20077;-83
2022/04/12 06:48:02;;;;;;;13.57;9.18;;;;;;;11.06;59.50;101202.69;5015403;28;20030;-83
2022/04/12 06:50:28;;;;;;;14.27;8.25;;;;;;;11.24;58.86;101202.19;5016183;28;20547;-82
2022/04/12 06:52:55;;;;;;;18.13;7.90;;;;;;;11.40;58.19;101204.59;5015388;28;20072;-82
2022/04/12 06:55:21;;;;;;;16.38;7.00;;;;;;;11.44;55.99;101203.34;5015310;28;20086;-84
2022/04/12 06:57:47;;;;;;;13.70;7.35;;;;;;;11.52;56.65;101206.34;5015273;28;20037;-84
2022/04/12 07:00:14;;;;;;;19.40;7.38;;;;;;;11.41;56.19;101199.06;5015537;28;20112;-84
2022/04/12 07:02:41;;;;;;;16.85;8.32;;;;;;;11.60;56.65;101195.84;5015022;28;20084;-83
2022/04/12 07:05:07;;;;;;;20.95;8.80;;;;;;;11.82;56.57;101209.41;5015118;28;20484;-84
2022/04/12 07:07:37;;;;;;;19.08;6.80;;;;;;;11.85;55.66;101198.41;5014608;28;20101;-83
2022/04/12 07:10:07;;;;;;;27.63;7.53;;;;;;;11.97;54.90;101197.44;5014839;28;20480;-85
2022/04/12 07:12:32;;;;;;;25.75;8.07;;;;;;;12.12;54.76;101197.19;5014937;28;20054;-82
2022/04/12 07:14:58;;;;;;;13.88;7.72;;;;;;;12.28;54.46;101205.81;5014492;28;20238;-82
2022/04/12 07:17:23;;;;;;;22.83;9.00;;;;;;;12.44;53.67;101200.91;5014233;28;20026;-84
2022/04/12 07:19:49;;;;;;;18.35;7.53;;;;;;;12.35;53.22;101201.66;5014990;28;20034;-84
2022/04/12 07:22:14;;;;;;;14.40;7.82;;;;;;;12.49;52.94;101194.16;5014429;28;20030;-82
2022/04/12 07:24:40;;;;;;;12.00;7.30;;;;;;;12.53;50.89;101189.38;5014726;28;20364;-83
2022/04/12 07:27:05;;;;;;;10.50;6.40;;;;;;;12.79;51.06;101195.34;5012721;28;20435;-83
2022/04/12 07:29:31;;;;;;;35.70;8.32;;;;;;;12.99;50.50;101187.34;5014965;28;20060;-83
2022/04/12 07:31:57;;;;;;;21.67;7.55;;;;;;;13.16;50.61;101195.91;5014701;28;20029;-84
2022/04/12 07:34:22;;;;;;;14.32;7.07;;;;;;;13.07;50.04;101192.97;5020852;28;20032;-84
2022/04/12 07:36:53;;;;;;;17.42;7.00;;;;;;;13.03;50.19;101186.09;5021605;28;20065;-83
2022/04/12 07:39:19;;;;;;;17.42;7.70;;;;;;;12.98;49.23;101185.63;5014297;28;20110;-83
2022/04/12 07:41:45;;;;;;;18.80;6.70;;;;;;;12.88;48.97;101184.66;5020411;28;20512;-83
2022/04/12 07:44:12;;;;;;;11.52;4.65;;;;;;;12.69;45.41;101192.53;5022832;28;20030;-81
2022/04/12 07:46:37;;;;;;;28.13;7.40;;;;;;;12.71;46.03;101193.28;5024527;28;20252;-83
2022/04/12 07:49:03;;;;;;;17.52;5.53;;;;;;;12.71;46.13;101192.44;5019895;28;20487;-83
2022/04/12 07:51:28;;;;;;;11.50;5.43;;;;;;;12.73;45.45;101196.72;5015063;28;20037;-83
2022/04/12 07:53:54;;;;;;;20.30;7.82;;;;;;;12.84;47.47;101194.00;5013806;28;20022;-83
2022/04/12 07:56:19;;;;;;;16.65;6.53;;;;;;;13.00;48.73;101183.66;5020481;28;20108;-83
2022/04/12 07:58:45;;;;;;;18.08;6.55;;;;;;;13.05;48.26;101184.16;5013974;28;20427;-83
2022/04/12 08:01:10;;;;;;;7.68;5.93;;;;;;;12.97;46.97;101188.44;5013766;28;20472;-82
2022/04/12 08:03:36;;;;;;;17.10;6.50;;;;;;;12.85;46.55;101184.06;5013368;28;20030;-83
2022/04/12 08:06:02;;;;;;;22.92;7.22;;;;;;;13.01;46.77;101188.09;5013725;28;20076;-84
2022/04/12 08:08:28;;;;;;;13.13;6.47;;;;;;;13.19;46.26;101184.84;5013762;28;20030;-84
2022/04/12 08:10:53;;;;;;;16.30;6.43;;;;;;;13.31;45.63;101186.53;5015255;28;20030;-84
2022/04/12 08:13:19;;;;;;;11.18;6.95;;;;;;;13.33;44.56;101181.88;5034893;28;20072;-83
2022/04/12 08:15:44;;;;;;;19.38;6.35;;;;;;;13.40;44.64;101183.91;5017420;28;20026;-84
2022/04/12 08:18:11;;;;;;;19.20;7.10;;;;;;;13.36;44.14;101176.22;5011757;28;20040;-83
2022/04/12 08:20:36;;;;;;;12.75;6.05;;;;;;;13.12;43.87;101180.97;5012981;28;20034;-84
2022/04/12 08:23:02;;;;;;;24.10;7.07;;;;;;;13.37;44.43;101175.22;5011954;28;20117;-84
2022/04/12 08:25:28;;;;;;;21.00;7.35;;;;;;;13.27;43.31;101177.00;5013375;28;20467;-83
2022/04/12 08:27:53;;;;;;;10.88;5.97;;;;;;;13.24;43.72;101169.16;5013158;28;20030;-84
2022/04/12 08:30:19;;;;;;;13.35;5.95;;;;;;;13.51;43.65;101173.06;5012983;28;20087;-85
2022/04/12 08:32:45;;;;;;;45.08;9.18;;;;;;;13.55;43.48;101161.00;5011729;28;20108;-84
2022/04/12 08:35:10;;;;;;;11.95;6.00;;;;;;;13.39;43.07;101173.25;5011934;28;20036;-84
2022/04/12 08:37:36;;;;;;;19.73;9.75;;;;;;;13.58;43.51;101167.97;5013882;28;20034;-84
2022/04/12 08:40:02;;;;;;;10.95;5.97;;;;;;;13.43;43.36;101166.59;5013127;28;20022;-84
2022/04/12 08:42:28;;;;;;;19.35;5.75;;;;;;;13.44;44.21;101154.78;5013020;28;20097;-84
2022/04/12 08:44:54;;;;;;;8.43;4.05;;;;;;;13.67;42.48;101161.78;5012894;28;20119;-84
2022/04/12 08:47:20;;;;;;;9.40;4.00;;;;;;;13.71;39.17;101163.25;5012766;28;20045;-84
2022/04/12 08:49:46;;;;;;;7.60;3.35;;;;;;;13.66;38.22;101160.09;5012766;28;20403;-83
2022/04/12 08:52:13;;;;;;;14.48;3.63;;;;;;;13.76;38.68;101166.41;5012665;28;20108;-83
2022/04/12 08:54:40;;;;;;;13.52;3.63;;;;;;;13.81;37.74;101158.78;5012595;28;20096;-84
2022/04/12 08:57:07;;;;;;;5.97;3.10;;;;;;;13.99;37.83;101161.72;5013187;28;20022;-83
2022/04/12 08:59:32;;;;;;;12.27;3.55;;;;;;;14.02;36.56;101161.44;5012574;28;20033;-84
2022/04/12 09:01:58;;;;;;;13.02;4.30;;;;;;;14.11;36.51;101160.66;5012586;28;20026;-84
2022/04/12 09:04:27;;;;;;;7.38;3.92;;;;;;;14.14;35.71;101155.81;5012758;28;20086;-84
2022/04/12 09:06:57;;;;;;;7.10;2.88;;;;;;;14.04;35.36;101160.31;5012305;28;20028;-84
2022/04/12 09:09:26;;;;;;;4.07;2.60;;;;;;;14.11;35.95;101160.66;5012408;28;20507;-83
2022/04/12 09:12:12;;;;;;;4.18;2.65;;;;;;;14.16;36.48;101145.72;5012441;28;20447;-85
2022/04/12 09:14:56;;;;;;;6.13;3.38;;;;;;;14.34;36.85;101153.25;5012372;28;20145;-84
2022/04/12 09:17:32;;;;;;;7.55;3.53;;;;;;;14.49;36.48;101154.59;5012029;28;20072;-84
2022/04/12 09:19:57;;;;;;;6.50;3.17;;;;;;;14.60;35.67;101140.94;5010796;28;20467;-84
2022/04/12 09:22:25;;;;;;;9.18;3.03;;;;;;;14.64;35.90;101120.72;5012552;28;20057;-84
2022/04/12 09:24:58;;;;;;;14.90;4.45;;;;;;;14.89;36.48;101136.44;5011943;28;20185;-85
2022/04/12 09:27:29;;;;;;;13.98;4.63;;;;;;;14.95;35.80;101124.22;5012239;28;20018;-84
2022/04/12 09:29:57;;;;;;;15.50;4.78;;;;;;;15.02;34.87;101137.03;5012441;28;20173;-83
2022/04/12 09:32:25;;;;;;;6.10;3.40;;;;;;;14.91;34.71;101142.59;5012398;28;20570;-85
2022/04/12 09:34:51;;;;;;;18.63;4.10;;;;;;;14.90;34.18;101142.72;5012142;28;20100;-83
2022/04/12 09:37:25;;;;;;;6.57;2.95;;;;;;;14.76;33.81;101140.41;5012034;28;20404;-85
2022/04/12 09:40:00;;;;;;;9.32;4.25;;;;;;;14.69;34.51;101149.09;5011978;28;20057;-82
2022/04/12 09:42:44;;;;;;;22.98;5.03;;;;;;;14.57;34.65;101139.38;5012101;28;20030;-85
2022/04/12 09:45:25;;;;;;;7.88;3.38;;;;;;;14.48;34.35;101132.06;5011928;28;20026;-84
2022/04/12 09:47:52;;;;;;;10.85;3.50;;;;;;;14.34;34.95;101143.25;5012300;28;20026;-82
2022/04/12 09:50:27;;;;;;;5.30;2.83;;;;;;;14.36;35.20;101140.44;5023314;28;20030;-83
2022/04/12 09:53:04;;;;;;;10.18;3.95;;;;;;;14.15;35.19;101140.47;5026606;28;20026;-85
2022/04/12 09:55:38;;;;;;;6.18;3.35;;;;;;;14.14;35.69;101142.31;5029087;28;20030;-83
2022/04/12 09:58:06;;;;;;;7.35;3.00;;;;;;;13.98;35.39;101150.03;5012792;28;20026;-82
2022/04/12 10:00:32;;;;;;;7.18;3.42;;;;;;;13.95;35.43;101144.91;5012292;28;20073;-82
2022/04/12 10:03:03;;;;;;;13.55;4.30;;;;;;;13.89;35.95;101142.72;5011354;28;20173;-82
2022/04/12 10:05:29;;;;;;;17.95;8.15;;;;;;;14.00;36.74;101161.59;5011312;28;20018;-76
2022/04/12 10:07:58;;;;;;;7.78;2.75;;;;;;;13.71;38.72;101165.94;5010615;28;20022;-76
2022/04/12 10:10:27;;;;;;;5.22;2.70;;;;;;;13.53;39.57;101145.91;5010755;28;20476;-75
2022/04/12 10:12:54;;;;;;;7.80;3.17;;;;;;;13.45;40.69;101151.13;5009401;28;20487;-76
2022/04/12 10:15:21;;;;;;;3.83;2.95;;;;;;;13.33;40.38;101152.16;5010847;28;20022;-76
2022/04/12 10:17:48;;;;;;;10.90;4.18;;;;;;;13.30;41.61;101141.63;5014253;28;20033;-76
2022/04/12 10:20:16;;;;;;;8.73;4.43;;;;;;;13.19;42.24;101134.41;5014295;28;20095;-75
2022/04/12 10:22:42;;;;;;;17.77;4.85;;;;;;;13.17;42.68;101144.50;5014454;28;20021;-76
2022/04/12 10:25:09;;;;;;;14.68;4.38;;;;;;;13.15;42.10;101148.31;5014458;28;20376;-75
2022/04/12 10:27:36;;;;;;;17.73;4.88;;;;;;;13.11;42.46;101157.66;5014349;28;20048;-76
2022/04/12 10:30:25;;;;;;;11.57;5.03;;;;;;;12.98;40.80;101147.84;5014388;28;20029;-75
2022/04/12 10:33:04;;;;;;;11.25;4.68;;;;;;;13.05;40.59;101154.44;5013013;28;20030;-76
2022/04/12 10:35:55;;;;;;;12.82;5.47;;;;;;;13.03;40.81;101167.19;5013699;28;20030;-75
2022/04/12 10:38:23;;;;;;;11.82;4.15;;;;;;;12.90;42.53;101166.50;5014096;28;20112;-76
2022/04/12 10:40:54;;;;;;;11.15;4.38;;;;;;;12.84;44.06;101172.38;5014126;28;20022;-74
2022/04/12 10:43:33;;;;;;;9.70;4.20;;;;;;;12.84;44.99;101169.69;5014143;28;20122;-75
2022/04/12 10:46:02;;;;;;;7.18;4.45;;;;;;;12.80;45.87;101183.59;5012506;28;20104;-75
2022/04/12 10:48:29;;;;;;;10.88;4.53;;;;;;;12.86;45.28;101167.75;5013944;28;20053;-75
2022/04/12 10:50:56;;;;;;;8.32;4.00;;;;;;;12.84;45.03;101156.19;5014123;28;20520;-75
2022/04/12 10:53:39;;;;;;;16.88;4.40;;;;;;;12.75;44.82;101156.94;5013826;28;20032;-77
2022/04/12 10:56:08;;;;;;;13.32;4.57;;;;;;;12.80;44.52;101141.25;5013504;28;20022;-76
2022/04/12 10:58:34;;;;;;;17.60;4.75;;;;;;;12.83;43.90;101154.50;5014057;28;20029;-76
2022/04/12 11:01:00;;;;;;;16.42;4.43;;;;;;;12.97;43.60;101142.53;5014043;28;20030;-76
2022/04/12 11:03:41;;;;;;;9.40;4.72;;;;;;;12.99;43.18;101149.56;5013911;28;20450;-76
2022/04/12 11:06:14;;;;;;;16.75;6.00;;;;;;;13.08;43.60;101159.63;5014157;28;20100;-76
2022/04/12 11:08:47;;;;;;;10.25;4.93;;;;;;;13.14;43.26;101173.59;5013830;28;20105;-78
2022/04/12 11:11:18;;;;;;;9.85;3.97;;;;;;;13.00;42.83;101205.25;5012304;28;20392;-76
2022/04/12 11:13:44;;;;;;;11.10;4.53;;;;;;;12.84;44.98;101204.78;5013571;28;20116;-75
2022/04/12 11:16:12;;;;;;;6.13;3.25;;;;;;;12.53;46.62;101221.75;5013246;28;20480;-75
2022/04/12 11:18:51;;;;;;;4.90;3.22;;;;;;;12.35;47.68;101196.25;5013315;28;20068;-76
2022/04/12 11:21:22;;;;;;;26.88;5.60;;;;;;;12.30;49.54;101190.34;5013516;28;20104;-76